sensor_id;sensor_type;location;lat;lon;timestamp;P1;durP1;ratioP1;P2;durP2;ratioP2
46507;SDS011;32223;53.654;10.014;2023-10-13T00:00:29;8.38;;;2.50;;
46507;SDS011;32223;53.654;10.014;2023-10-13T00:02:58;6.55;;;2.70;;
46507;SDS011;32223;53.654;10.014;2023-10-13T00:05:27;8.57;;;2.70;;
46507;SDS011;32223;53.654;10.014;2023-10-13T00:07:53;6.10;;;2.80;;
46507;SDS011;32223;53.654;10.014;2023-10-13T00:10:19;6.50;;;2.80;;
46507;SDS011;32223;53.654;10.014;2023-10-13T00:12:44;5.88;;;2.22;;
46507;SDS011;32223;53.654;10.014;2023-10-13T00:15:17;10.52;;;3.17;;
46507;SDS011;32223;53.654;10.014;2023-10-13T00:17:43;8.15;;;2.10;;
46507;SDS011;32223;53.654;10.014;2023-10-13T00:20:09;7.05;;;2.50;;
46507;SDS011;32223;53.654;10.014;2023-10-13T00:22:41;6.10;;;1.90;;
46507;SDS011;32223;53.654;10.014;2023-10-13T00:25:07;10.43;;;3.22;;
46507;SDS011;32223;53.654;10.014;2023-10-13T00:27:39;10.80;;;2.00;;
46507;SDS011;32223;53.654;10.014;2023-10-13T00:30:07;12.13;;;2.72;;
46507;SDS011;32223;53.654;10.014;2023-10-13T00:32:58;11.00;;;2.78;;
46507;SDS011;32223;53.654;10.014;2023-10-13T00:35:24;8.27;;;2.92;;
46507;SDS011;32223;53.654;10.014;2023-10-13T00:37:52;11.40;;;3.00;;
46507;SDS011;32223;53.654;10.014;2023-10-13T00:40:22;6.63;;;2.58;;
46507;SDS011;32223;53.654;10.014;2023-10-13T00:42:57;8.73;;;2.75;;
46507;SDS011;32223;53.654;10.014;2023-10-13T00:45:41;10.47;;;2.67;;
46507;SDS011;32223;53.654;10.014;2023-10-13T00:48:10;15.13;;;3.30;;
46507;SDS011;32223;53.654;10.014;2023-10-13T00:50:37;10.80;;;3.58;;
46507;SDS011;32223;53.654;10.014;2023-10-13T00:53:04;8.57;;;3.92;;
46507;SDS011;32223;53.654;10.014;2023-10-13T00:55:29;8.88;;;3.45;;
46507;SDS011;32223;53.654;10.014;2023-10-13T00:57:58;9.43;;;3.38;;
46507;SDS011;32223;53.654;10.014;2023-10-13T01:00:28;12.52;;;3.92;;
46507;SDS011;32223;53.654;10.014;2023-10-13T01:02:54;13.02;;;3.67;;
46507;SDS011;32223;53.654;10.014;2023-10-13T01:05:21;10.38;;;4.05;;
46507;SDS011;32223;53.654;10.014;2023-10-13T01:07:48;10.63;;;4.70;;
46507;SDS011;32223;53.654;10.014;2023-10-13T01:10:18;16.23;;;4.53;;
46507;SDS011;32223;53.654;10.014;2023-10-13T01:12:45;13.45;;;5.95;;
46507;SDS011;32223;53.654;10.014;2023-10-13T01:15:11;14.63;;;5.00;;
46507;SDS011;32223;53.654;10.014;2023-10-13T01:17:41;17.02;;;5.05;;
46507;SDS011;32223;53.654;10.014;2023-10-13T01:20:09;15.23;;;5.32;;
46507;SDS011;32223;53.654;10.014;2023-10-13T01:22:37;16.65;;;6.35;;
46507;SDS011;32223;53.654;10.014;2023-10-13T01:25:03;20.10;;;6.45;;
46507;SDS011;32223;53.654;10.014;2023-10-13T01:27:35;12.73;;;4.30;;
46507;SDS011;32223;53.654;10.014;2023-10-13T01:30:03;13.10;;;4.82;;
46507;SDS011;32223;53.654;10.014;2023-10-13T01:32:47;16.63;;;5.75;;
46507;SDS011;32223;53.654;10.014;2023-10-13T01:35:18;18.17;;;6.88;;
46507;SDS011;32223;53.654;10.014;2023-10-13T01:37:44;18.05;;;6.78;;
46507;SDS011;32223;53.654;10.014;2023-10-13T01:40:10;13.63;;;6.15;;
46507;SDS011;32223;53.654;10.014;2023-10-13T01:42:38;13.60;;;6.30;;
46507;SDS011;32223;53.654;10.014;2023-10-13T01:45:04;22.08;;;6.97;;
46507;SDS011;32223;53.654;10.014;2023-10-13T01:47:31;18.80;;;6.38;;
46507;SDS011;32223;53.654;10.014;2023-10-13T01:50:01;22.08;;;8.07;;
46507;SDS011;32223;53.654;10.014;2023-10-13T01:52:40;20.60;;;7.20;;
46507;SDS011;32223;53.654;10.014;2023-10-13T01:55:07;17.70;;;5.93;;
46507;SDS011;32223;53.654;10.014;2023-10-13T01:57:35;22.60;;;7.57;;
46507;SDS011;32223;53.654;10.014;2023-10-13T02:00:01;30.33;;;7.18;;
46507;SDS011;32223;53.654;10.014;2023-10-13T02:02:35;25.50;;;7.50;;
46507;SDS011;32223;53.654;10.014;2023-10-13T02:05:07;20.70;;;7.47;;
46507;SDS011;32223;53.654;10.014;2023-10-13T02:07:33;19.45;;;7.30;;
46507;SDS011;32223;53.654;10.014;2023-10-13T02:09:59;22.23;;;8.65;;
46507;SDS011;32223;53.654;10.014;2023-10-13T02:12:31;26.15;;;8.95;;
46507;SDS011;32223;53.654;10.014;2023-10-13T02:15:09;20.13;;;8.68;;
46507;SDS011;32223;53.654;10.014;2023-10-13T02:17:46;21.92;;;8.60;;
46507;SDS011;32223;53.654;10.014;2023-10-13T02:20:16;23.02;;;8.65;;
46507;SDS011;32223;53.654;10.014;2023-10-13T02:22:43;22.30;;;8.77;;
46507;SDS011;32223;53.654;10.014;2023-10-13T02:25:15;20.88;;;8.13;;
46507;SDS011;32223;53.654;10.014;2023-10-13T02:28:20;22.63;;;10.25;;
46507;SDS011;32223;53.654;10.014;2023-10-13T02:30:53;28.00;;;10.05;;
46507;SDS011;32223;53.654;10.014;2023-10-13T02:33:18;19.90;;;8.25;;
46507;SDS011;32223;53.654;10.014;2023-10-13T02:35:50;27.60;;;10.82;;
46507;SDS011;32223;53.654;10.014;2023-10-13T02:38:18;29.02;;;10.30;;
46507;SDS011;32223;53.654;10.014;2023-10-13T02:40:52;23.80;;;9.25;;
46507;SDS011;32223;53.654;10.014;2023-10-13T02:43:19;26.48;;;9.73;;
46507;SDS011;32223;53.654;10.014;2023-10-13T02:45:51;29.70;;;10.07;;
46507;SDS011;32223;53.654;10.014;2023-10-13T02:48:24;30.92;;;10.27;;
46507;SDS011;32223;53.654;10.014;2023-10-13T02:50:55;21.45;;;8.63;;
46507;SDS011;32223;53.654;10.014;2023-10-13T02:53:30;22.88;;;9.18;;
46507;SDS011;32223;53.654;10.014;2023-10-13T02:55:56;30.42;;;10.48;;
46507;SDS011;32223;53.654;10.014;2023-10-13T02:58:23;33.17;;;11.57;;
46507;SDS011;32223;53.654;10.014;2023-10-13T03:01:02;29.77;;;10.07;;
46507;SDS011;32223;53.654;10.014;2023-10-13T03:03:42;30.85;;;11.45;;
46507;SDS011;32223;53.654;10.014;2023-10-13T03:06:15;26.23;;;11.00;;
46507;SDS011;32223;53.654;10.014;2023-10-13T03:08:41;25.80;;;10.43;;
46507;SDS011;32223;53.654;10.014;2023-10-13T03:11:08;23.60;;;11.85;;
46507;SDS011;32223;53.654;10.014;2023-10-13T03:13:35;24.17;;;10.77;;
46507;SDS011;32223;53.654;10.014;2023-10-13T03:16:10;26.25;;;11.90;;
46507;SDS011;32223;53.654;10.014;2023-10-13T03:18:36;26.85;;;10.93;;
46507;SDS011;32223;53.654;10.014;2023-10-13T03:21:03;25.92;;;10.23;;
46507;SDS011;32223;53.654;10.014;2023-10-13T03:23:28;26.25;;;10.95;;
46507;SDS011;32223;53.654;10.014;2023-10-13T03:26:10;25.30;;;10.95;;
46507;SDS011;32223;53.654;10.014;2023-10-13T03:28:36;25.80;;;11.65;;
46507;SDS011;32223;53.654;10.014;2023-10-13T03:31:03;26.63;;;11.55;;
46507;SDS011;32223;53.654;10.014;2023-10-13T03:33:29;28.92;;;12.18;;
46507;SDS011;32223;53.654;10.014;2023-10-13T03:35:58;31.02;;;12.77;;
46507;SDS011;32223;53.654;10.014;2023-10-13T03:38:30;20.42;;;11.02;;
46507;SDS011;32223;53.654;10.014;2023-10-13T03:41:01;27.95;;;12.38;;
46507;SDS011;32223;53.654;10.014;2023-10-13T03:43:37;21.40;;;10.55;;
46507;SDS011;32223;53.654;10.014;2023-10-13T03:46:10;21.25;;;10.43;;
46507;SDS011;32223;53.654;10.014;2023-10-13T03:48:36;17.75;;;9.80;;
46507;SDS011;32223;53.654;10.014;2023-10-13T03:51:17;24.17;;;10.55;;
46507;SDS011;32223;53.654;10.014;2023-10-13T03:53:42;25.92;;;12.15;;
46507;SDS011;32223;53.654;10.014;2023-10-13T03:56:17;22.90;;;9.25;;
46507;SDS011;32223;53.654;10.014;2023-10-13T03:58:57;20.85;;;9.40;;
46507;SDS011;32223;53.654;10.014;2023-10-13T04:01:30;22.10;;;9.85;;
46507;SDS011;32223;53.654;10.014;2023-10-13T04:03:58;15.82;;;8.15;;
46507;SDS011;32223;53.654;10.014;2023-10-13T04:06:35;16.00;;;8.43;;
46507;SDS011;32223;53.654;10.014;2023-10-13T04:09:16;18.17;;;8.02;;
46507;SDS011;32223;53.654;10.014;2023-10-13T04:11:54;14.18;;;7.72;;
46507;SDS011;32223;53.654;10.014;2023-10-13T04:14:29;12.07;;;7.20;;
46507;SDS011;32223;53.654;10.014;2023-10-13T04:17:15;15.98;;;7.55;;
46507;SDS011;32223;53.654;10.014;2023-10-13T04:19:47;15.10;;;7.35;;
46507;SDS011;32223;53.654;10.014;2023-10-13T04:22:41;12.57;;;8.05;;
46507;SDS011;32223;53.654;10.014;2023-10-13T04:27:54;13.05;;;8.25;;
46507;SDS011;32223;53.654;10.014;2023-10-13T04:33:24;19.40;;;8.90;;
46507;SDS011;32223;53.654;10.014;2023-10-13T04:36:05;13.27;;;8.15;;
46507;SDS011;32223;53.654;10.014;2023-10-13T04:38:56;17.20;;;8.80;;
46507;SDS011;32223;53.654;10.014;2023-10-13T04:41:34;17.85;;;9.45;;
46507;SDS011;32223;53.654;10.014;2023-10-13T04:44:06;21.65;;;9.52;;
46507;SDS011;32223;53.654;10.014;2023-10-13T04:46:54;15.48;;;9.65;;
46507;SDS011;32223;53.654;10.014;2023-10-13T04:49:24;20.50;;;10.27;;
46507;SDS011;32223;53.654;10.014;2023-10-13T04:52:08;17.42;;;10.30;;
46507;SDS011;32223;53.654;10.014;2023-10-13T04:54:39;17.33;;;10.13;;
46507;SDS011;32223;53.654;10.014;2023-10-13T04:57:12;19.60;;;10.88;;
46507;SDS011;32223;53.654;10.014;2023-10-13T05:00:12;17.23;;;10.27;;
46507;SDS011;32223;53.654;10.014;2023-10-13T05:02:45;19.65;;;10.27;;
46507;SDS011;32223;53.654;10.014;2023-10-13T05:05:43;21.70;;;10.45;;
46507;SDS011;32223;53.654;10.014;2023-10-13T05:08:28;19.67;;;10.48;;
46507;SDS011;32223;53.654;10.014;2023-10-13T05:11:28;21.08;;;11.93;;
46507;SDS011;32223;53.654;10.014;2023-10-13T05:14:13;18.35;;;11.00;;
46507;SDS011;32223;53.654;10.014;2023-10-13T05:16:57;23.23;;;11.55;;
46507;SDS011;32223;53.654;10.014;2023-10-13T05:19:41;27.55;;;13.10;;
46507;SDS011;32223;53.654;10.014;2023-10-13T05:22:25;23.50;;;12.70;;
46507;SDS011;32223;53.654;10.014;2023-10-13T05:25:09;19.42;;;11.18;;
46507;SDS011;32223;53.654;10.014;2023-10-13T05:27:53;26.30;;;14.02;;
46507;SDS011;32223;53.654;10.014;2023-10-13T05:30:40;25.40;;;14.63;;
46507;SDS011;32223;53.654;10.014;2023-10-13T05:33:24;25.77;;;13.27;;
46507;SDS011;32223;53.654;10.014;2023-10-13T05:36:10;32.97;;;17.52;;
46507;SDS011;32223;53.654;10.014;2023-10-13T05:39:11;31.83;;;16.27;;
46507;SDS011;32223;53.654;10.014;2023-10-13T05:41:55;28.27;;;16.20;;
46507;SDS011;32223;53.654;10.014;2023-10-13T05:44:40;27.92;;;16.08;;
46507;SDS011;32223;53.654;10.014;2023-10-13T05:47:24;32.08;;;18.10;;
46507;SDS011;32223;53.654;10.014;2023-10-13T05:50:12;31.77;;;17.42;;
46507;SDS011;32223;53.654;10.014;2023-10-13T05:52:54;38.47;;;19.95;;
46507;SDS011;32223;53.654;10.014;2023-10-13T05:55:21;37.90;;;19.52;;
46507;SDS011;32223;53.654;10.014;2023-10-13T05:58:14;44.03;;;22.27;;
46507;SDS011;32223;53.654;10.014;2023-10-13T06:00:59;48.17;;;23.27;;
46507;SDS011;32223;53.654;10.014;2023-10-13T06:03:43;42.90;;;22.15;;
46507;SDS011;32223;53.654;10.014;2023-10-13T06:06:28;41.33;;;21.77;;
46507;SDS011;32223;53.654;10.014;2023-10-13T06:09:12;46.72;;;23.83;;
46507;SDS011;32223;53.654;10.014;2023-10-13T06:11:56;52.30;;;24.30;;
46507;SDS011;32223;53.654;10.014;2023-10-13T06:14:40;48.75;;;25.05;;
46507;SDS011;32223;53.654;10.014;2023-10-13T06:17:29;44.78;;;24.02;;
46507;SDS011;32223;53.654;10.014;2023-10-13T06:20:13;41.50;;;21.88;;
46507;SDS011;32223;53.654;10.014;2023-10-13T06:22:57;42.13;;;24.38;;
46507;SDS011;32223;53.654;10.014;2023-10-13T06:25:41;42.95;;;24.15;;
46507;SDS011;32223;53.654;10.014;2023-10-13T06:28:25;32.05;;;20.42;;
46507;SDS011;32223;53.654;10.014;2023-10-13T06:31:05;37.90;;;22.90;;
46507;SDS011;32223;53.654;10.014;2023-10-13T06:33:32;40.45;;;21.92;;
46507;SDS011;32223;53.654;10.014;2023-10-13T06:36:01;34.75;;;21.23;;
46507;SDS011;32223;53.654;10.014;2023-10-13T06:38:28;35.83;;;21.00;;
46507;SDS011;32223;53.654;10.014;2023-10-13T06:41:17;35.25;;;21.75;;
46507;SDS011;32223;53.654;10.014;2023-10-13T06:43:55;44.25;;;24.05;;
46507;SDS011;32223;53.654;10.014;2023-10-13T06:46:30;32.20;;;20.25;;
46507;SDS011;32223;53.654;10.014;2023-10-13T06:48:58;34.28;;;21.23;;
46507;SDS011;32223;53.654;10.014;2023-10-13T06:51:25;36.13;;;21.88;;
46507;SDS011;32223;53.654;10.014;2023-10-13T06:53:55;34.90;;;22.42;;
46507;SDS011;32223;53.654;10.014;2023-10-13T06:56:22;34.30;;;21.75;;
46507;SDS011;32223;53.654;10.014;2023-10-13T06:58:51;31.65;;;20.65;;
46507;SDS011;32223;53.654;10.014;2023-10-13T07:01:24;28.45;;;20.15;;
46507;SDS011;32223;53.654;10.014;2023-10-13T07:03:52;34.65;;;22.08;;
46507;SDS011;32223;53.654;10.014;2023-10-13T07:06:21;31.48;;;20.80;;
46507;SDS011;32223;53.654;10.014;2023-10-13T07:08:47;32.90;;;20.63;;
46507;SDS011;32223;53.654;10.014;2023-10-13T07:11:24;33.72;;;21.00;;
46507;SDS011;32223;53.654;10.014;2023-10-13T07:14:02;35.47;;;20.48;;
46507;SDS011;32223;53.654;10.014;2023-10-13T07:16:55;31.70;;;20.15;;
46507;SDS011;32223;53.654;10.014;2023-10-13T07:19:25;33.40;;;20.15;;
46507;SDS011;32223;53.654;10.014;2023-10-13T07:21:54;30.70;;;20.02;;
46507;SDS011;32223;53.654;10.014;2023-10-13T07:24:25;31.83;;;19.85;;
46507;SDS011;32223;53.654;10.014;2023-10-13T07:26:56;32.30;;;21.65;;
46507;SDS011;32223;53.654;10.014;2023-10-13T07:29:28;32.33;;;20.55;;
46507;SDS011;32223;53.654;10.014;2023-10-13T07:31:54;29.90;;;19.83;;
46507;SDS011;32223;53.654;10.014;2023-10-13T07:34:20;35.28;;;21.00;;
46507;SDS011;32223;53.654;10.014;2023-10-13T07:36:52;29.50;;;18.38;;
46507;SDS011;32223;53.654;10.014;2023-10-13T07:39:24;27.77;;;19.00;;
46507;SDS011;32223;53.654;10.014;2023-10-13T07:41:51;36.72;;;21.95;;
46507;SDS011;32223;53.654;10.014;2023-10-13T07:44:28;35.05;;;22.63;;
46507;SDS011;32223;53.654;10.014;2023-10-13T07:46:58;36.83;;;25.38;;
46507;SDS011;32223;53.654;10.014;2023-10-13T07:49:29;34.92;;;20.98;;
46507;SDS011;32223;53.654;10.014;2023-10-13T07:52:01;34.45;;;21.00;;
46507;SDS011;32223;53.654;10.014;2023-10-13T07:55:00;34.80;;;22.98;;
46507;SDS011;32223;53.654;10.014;2023-10-13T07:57:45;28.58;;;19.33;;
46507;SDS011;32223;53.654;10.014;2023-10-13T08:00:20;27.35;;;19.10;;
46507;SDS011;32223;53.654;10.014;2023-10-13T08:03:05;27.48;;;18.65;;
46507;SDS011;32223;53.654;10.014;2023-10-13T08:05:40;27.25;;;18.92;;
46507;SDS011;32223;53.654;10.014;2023-10-13T08:08:26;26.02;;;17.52;;
46507;SDS011;32223;53.654;10.014;2023-10-13T08:11:00;29.67;;;17.83;;
46507;SDS011;32223;53.654;10.014;2023-10-13T08:13:33;25.90;;;16.40;;
46507;SDS011;32223;53.654;10.014;2023-10-13T08:16:02;26.95;;;18.48;;
46507;SDS011;32223;53.654;10.014;2023-10-13T08:18:33;26.20;;;17.35;;
46507;SDS011;32223;53.654;10.014;2023-10-13T08:21:01;26.65;;;16.52;;
46507;SDS011;32223;53.654;10.014;2023-10-13T08:23:31;21.15;;;15.93;;
46507;SDS011;32223;53.654;10.014;2023-10-13T08:26:24;36.40;;;25.70;;
46507;SDS011;32223;53.654;10.014;2023-10-13T08:29:12;47.00;;;27.38;;
46507;SDS011;32223;53.654;10.014;2023-10-13T08:31:47;20.13;;;13.13;;
46507;SDS011;32223;53.654;10.014;2023-10-13T08:34:32;17.13;;;12.93;;
46507;SDS011;32223;53.654;10.014;2023-10-13T08:37:24;17.95;;;11.95;;
46507;SDS011;32223;53.654;10.014;2023-10-13T08:39:54;17.80;;;12.45;;
46507;SDS011;32223;53.654;10.014;2023-10-13T08:42:35;15.45;;;11.73;;
46507;SDS011;32223;53.654;10.014;2023-10-13T08:45:07;14.77;;;10.82;;
46507;SDS011;32223;53.654;10.014;2023-10-13T08:47:53;14.48;;;10.07;;
46507;SDS011;32223;53.654;10.014;2023-10-13T08:50:51;15.25;;;10.68;;
46507;SDS011;32223;53.654;10.014;2023-10-13T08:55:53;13.38;;;10.40;;
46507;SDS011;32223;53.654;10.014;2023-10-13T08:58:28;15.50;;;10.65;;
46507;SDS011;32223;53.654;10.014;2023-10-13T09:01:14;14.40;;;10.20;;
46507;SDS011;32223;53.654;10.014;2023-10-13T09:03:59;11.98;;;8.90;;
46507;SDS011;32223;53.654;10.014;2023-10-13T09:06:44;12.55;;;9.88;;
46507;SDS011;32223;53.654;10.014;2023-10-13T09:09:29;11.55;;;8.07;;
46507;SDS011;32223;53.654;10.014;2023-10-13T09:12:14;13.68;;;8.40;;
46507;SDS011;32223;53.654;10.014;2023-10-13T09:14:50;11.80;;;8.43;;
46507;SDS011;32223;53.654;10.014;2023-10-13T09:17:24;10.63;;;7.70;;
46507;SDS011;32223;53.654;10.014;2023-10-13T09:20:00;11.00;;;8.10;;
46507;SDS011;32223;53.654;10.014;2023-10-13T09:22:46;9.63;;;7.25;;
46507;SDS011;32223;53.654;10.014;2023-10-13T09:25:26;10.50;;;6.70;;
46507;SDS011;32223;53.654;10.014;2023-10-13T09:27:58;8.68;;;6.53;;
46507;SDS011;32223;53.654;10.014;2023-10-13T09:30:25;9.65;;;7.13;;
46507;SDS011;32223;53.654;10.014;2023-10-13T09:32:59;10.60;;;6.90;;
46507;SDS011;32223;53.654;10.014;2023-10-13T09:35:26;10.18;;;6.55;;
46507;SDS011;32223;53.654;10.014;2023-10-13T09:37:52;9.32;;;6.55;;
46507;SDS011;32223;53.654;10.014;2023-10-13T09:40:22;10.02;;;5.88;;
46507;SDS011;32223;53.654;10.014;2023-10-13T09:43:11;8.40;;;5.50;;
46507;SDS011;32223;53.654;10.014;2023-10-13T09:45:40;11.32;;;6.82;;
46507;SDS011;32223;53.654;10.014;2023-10-13T09:48:21;8.65;;;5.25;;
46507;SDS011;32223;53.654;10.014;2023-10-13T09:50:57;11.05;;;6.00;;
46507;SDS011;32223;53.654;10.014;2023-10-13T09:53:31;6.93;;;5.03;;
46507;SDS011;32223;53.654;10.014;2023-10-13T09:59:07;7.55;;;5.30;;
46507;SDS011;32223;53.654;10.014;2023-10-13T10:01:39;10.15;;;5.20;;
46507;SDS011;32223;53.654;10.014;2023-10-13T10:04:15;9.25;;;5.60;;
46507;SDS011;32223;53.654;10.014;2023-10-13T10:06:51;9.48;;;5.22;;
46507;SDS011;32223;53.654;10.014;2023-10-13T10:09:26;8.15;;;4.78;;
46507;SDS011;32223;53.654;10.014;2023-10-13T10:17:41;11.93;;;4.30;;
46507;SDS011;32223;53.654;10.014;2023-10-13T10:20:07;13.98;;;5.25;;
46507;SDS011;32223;53.654;10.014;2023-10-13T10:22:58;9.15;;;5.00;;
46507;SDS011;32223;53.654;10.014;2023-10-13T10:25:28;11.90;;;5.20;;
46507;SDS011;32223;53.654;10.014;2023-10-13T10:28:01;8.57;;;4.53;;
46507;SDS011;32223;53.654;10.014;2023-10-13T10:30:32;10.07;;;5.18;;
46507;SDS011;32223;53.654;10.014;2023-10-13T10:32:59;9.30;;;4.75;;
46507;SDS011;32223;53.654;10.014;2023-10-13T10:35:26;12.20;;;4.68;;
46507;SDS011;32223;53.654;10.014;2023-10-13T10:37:57;7.40;;;4.35;;
46507;SDS011;32223;53.654;10.014;2023-10-13T10:46:07;7.13;;;4.53;;
46507;SDS011;32223;53.654;10.014;2023-10-13T10:48:35;8.85;;;5.35;;
46507;SDS011;32223;53.654;10.014;2023-10-13T10:51:03;12.80;;;4.80;;
46507;SDS011;32223;53.654;10.014;2023-10-13T10:53:33;10.43;;;5.55;;
46507;SDS011;32223;53.654;10.014;2023-10-13T10:56:09;8.65;;;5.30;;
46507;SDS011;32223;53.654;10.014;2023-10-13T10:58:58;12.30;;;5.75;;
46507;SDS011;32223;53.654;10.014;2023-10-13T11:01:27;14.23;;;5.22;;
46507;SDS011;32223;53.654;10.014;2023-10-13T11:04:11;9.93;;;4.30;;
46507;SDS011;32223;53.654;10.014;2023-10-13T11:06:51;11.07;;;5.30;;
46507;SDS011;32223;53.654;10.014;2023-10-13T11:09:24;10.10;;;4.93;;
46507;SDS011;32223;53.654;10.014;2023-10-13T11:11:51;10.75;;;4.95;;
46507;SDS011;32223;53.654;10.014;2023-10-13T11:14:25;8.73;;;4.93;;
46507;SDS011;32223;53.654;10.014;2023-10-13T11:16:53;8.15;;;4.63;;
46507;SDS011;32223;53.654;10.014;2023-10-13T11:19:20;11.18;;;5.40;;
46507;SDS011;32223;53.654;10.014;2023-10-13T11:22:09;8.75;;;4.38;;
46507;SDS011;32223;53.654;10.014;2023-10-13T11:24:55;10.27;;;5.78;;
46507;SDS011;32223;53.654;10.014;2023-10-13T11:27:27;10.43;;;4.15;;
46507;SDS011;32223;53.654;10.014;2023-10-13T11:32:40;11.02;;;4.60;;
46507;SDS011;32223;53.654;10.014;2023-10-13T11:35:07;10.18;;;5.90;;
46507;SDS011;32223;53.654;10.014;2023-10-13T11:37:45;12.65;;;5.53;;
46507;SDS011;32223;53.654;10.014;2023-10-13T11:40:22;11.93;;;5.38;;
46507;SDS011;32223;53.654;10.014;2023-10-13T11:43:06;7.30;;;4.25;;
46507;SDS011;32223;53.654;10.014;2023-10-13T11:45:38;12.98;;;5.55;;
46507;SDS011;32223;53.654;10.014;2023-10-13T11:48:18;18.17;;;5.57;;
46507;SDS011;32223;53.654;10.014;2023-10-13T11:50:58;12.48;;;5.38;;
46507;SDS011;32223;53.654;10.014;2023-10-13T11:53:24;8.20;;;4.00;;
46507;SDS011;32223;53.654;10.014;2023-10-13T11:55:52;18.42;;;5.80;;
46507;SDS011;32223;53.654;10.014;2023-10-13T11:58:18;12.45;;;4.72;;
46507;SDS011;32223;53.654;10.014;2023-10-13T12:00:43;7.65;;;4.32;;
46507;SDS011;32223;53.654;10.014;2023-10-13T12:03:27;11.25;;;4.88;;
46507;SDS011;32223;53.654;10.014;2023-10-13T12:06:11;8.77;;;3.92;;
46507;SDS011;32223;53.654;10.014;2023-10-13T12:09:07;10.55;;;5.15;;
46507;SDS011;32223;53.654;10.014;2023-10-13T12:11:43;13.07;;;3.78;;
46507;SDS011;32223;53.654;10.014;2023-10-13T12:14:19;9.25;;;3.58;;
46507;SDS011;32223;53.654;10.014;2023-10-13T12:17:06;11.65;;;4.25;;
46507;SDS011;32223;53.654;10.014;2023-10-13T12:19:35;6.30;;;2.80;;
46507;SDS011;32223;53.654;10.014;2023-10-13T12:22:01;11.27;;;3.83;;
46507;SDS011;32223;53.654;10.014;2023-10-13T12:24:33;13.68;;;5.72;;
46507;SDS011;32223;53.654;10.014;2023-10-13T12:27:02;10.32;;;4.35;;
46507;SDS011;32223;53.654;10.014;2023-10-13T12:29:43;7.43;;;3.92;;
46507;SDS011;32223;53.654;10.014;2023-10-13T12:32:13;7.80;;;4.55;;
46507;SDS011;32223;53.654;10.014;2023-10-13T12:34:40;8.75;;;3.85;;
46507;SDS011;32223;53.654;10.014;2023-10-13T12:37:25;13.05;;;3.50;;
46507;SDS011;32223;53.654;10.014;2023-10-13T12:40:09;8.30;;;3.70;;
46507;SDS011;32223;53.654;10.014;2023-10-13T12:42:58;7.00;;;2.90;;
46507;SDS011;32223;53.654;10.014;2023-10-13T12:45:43;9.82;;;4.95;;
46507;SDS011;32223;53.654;10.014;2023-10-13T12:48:28;10.50;;;3.13;;
46507;SDS011;32223;53.654;10.014;2023-10-13T12:51:13;12.70;;;3.63;;
46507;SDS011;32223;53.654;10.014;2023-10-13T12:53:45;9.38;;;3.97;;
46507;SDS011;32223;53.654;10.014;2023-10-13T12:56:12;10.00;;;3.90;;
46507;SDS011;32223;53.654;10.014;2023-10-13T12:58:37;10.05;;;3.75;;
46507;SDS011;32223;53.654;10.014;2023-10-13T13:01:03;12.40;;;3.88;;
46507;SDS011;32223;53.654;10.014;2023-10-13T13:03:31;7.53;;;3.75;;
46507;SDS011;32223;53.654;10.014;2023-10-13T13:05:57;9.07;;;4.60;;
46507;SDS011;32223;53.654;10.014;2023-10-13T13:08:23;8.02;;;3.08;;
46507;SDS011;32223;53.654;10.014;2023-10-13T13:10:49;9.23;;;4.15;;
46507;SDS011;32223;53.654;10.014;2023-10-13T13:13:17;10.15;;;3.30;;
46507;SDS011;32223;53.654;10.014;2023-10-13T13:15:49;10.38;;;4.30;;
46507;SDS011;32223;53.654;10.014;2023-10-13T13:18:15;9.60;;;4.35;;
46507;SDS011;32223;53.654;10.014;2023-10-13T13:20:41;8.00;;;3.80;;
46507;SDS011;32223;53.654;10.014;2023-10-13T13:23:18;4.95;;;3.33;;
46507;SDS011;32223;53.654;10.014;2023-10-13T13:25:47;12.38;;;3.85;;
46507;SDS011;32223;53.654;10.014;2023-10-13T13:28:13;11.35;;;3.30;;
46507;SDS011;32223;53.654;10.014;2023-10-13T13:30:43;12.32;;;4.90;;
46507;SDS011;32223;53.654;10.014;2023-10-13T13:33:09;8.73;;;3.92;;
46507;SDS011;32223;53.654;10.014;2023-10-13T13:35:41;9.38;;;4.35;;
46507;SDS011;32223;53.654;10.014;2023-10-13T13:38:09;9.00;;;3.47;;
46507;SDS011;32223;53.654;10.014;2023-10-13T13:40:37;10.80;;;3.97;;
46507;SDS011;32223;53.654;10.014;2023-10-13T13:43:03;9.98;;;4.53;;
46507;SDS011;32223;53.654;10.014;2023-10-13T13:45:28;10.45;;;3.38;;
46507;SDS011;32223;53.654;10.014;2023-10-13T13:47:54;10.00;;;4.22;;
46507;SDS011;32223;53.654;10.014;2023-10-13T13:50:26;14.75;;;3.90;;
46507;SDS011;32223;53.654;10.014;2023-10-13T13:52:54;8.68;;;4.15;;
46507;SDS011;32223;53.654;10.014;2023-10-13T13:55:24;9.77;;;4.88;;
46507;SDS011;32223;53.654;10.014;2023-10-13T13:57:55;8.25;;;4.03;;
46507;SDS011;32223;53.654;10.014;2023-10-13T14:00:21;9.70;;;4.95;;
46507;SDS011;32223;53.654;10.014;2023-10-13T14:03:05;9.63;;;3.78;;
46507;SDS011;32223;53.654;10.014;2023-10-13T14:05:40;14.00;;;5.10;;
46507;SDS011;32223;53.654;10.014;2023-10-13T14:08:06;14.63;;;4.15;;
46507;SDS011;32223;53.654;10.014;2023-10-13T14:10:36;10.80;;;4.10;;
46507;SDS011;32223;53.654;10.014;2023-10-13T14:13:24;11.48;;;5.35;;
46507;SDS011;32223;53.654;10.014;2023-10-13T14:16:09;10.32;;;4.47;;
46507;SDS011;32223;53.654;10.014;2023-10-13T14:18:50;11.30;;;3.97;;
46507;SDS011;32223;53.654;10.014;2023-10-13T14:21:16;10.57;;;4.30;;
46507;SDS011;32223;53.654;10.014;2023-10-13T14:23:46;13.32;;;4.32;;
46507;SDS011;32223;53.654;10.014;2023-10-13T14:26:14;11.85;;;4.28;;
46507;SDS011;32223;53.654;10.014;2023-10-13T14:28:44;13.55;;;5.30;;
46507;SDS011;32223;53.654;10.014;2023-10-13T14:31:29;19.35;;;5.10;;
46507;SDS011;32223;53.654;10.014;2023-10-13T14:33:56;12.25;;;4.70;;
46507;SDS011;32223;53.654;10.014;2023-10-13T14:36:22;14.10;;;5.03;;
46507;SDS011;32223;53.654;10.014;2023-10-13T14:38:48;9.73;;;4.75;;
46507;SDS011;32223;53.654;10.014;2023-10-13T14:41:17;11.63;;;5.10;;
46507;SDS011;32223;53.654;10.014;2023-10-13T14:43:44;10.60;;;6.00;;
46507;SDS011;32223;53.654;10.014;2023-10-13T14:46:13;10.98;;;4.57;;
46507;SDS011;32223;53.654;10.014;2023-10-13T14:48:40;11.02;;;4.70;;
46507;SDS011;32223;53.654;10.014;2023-10-13T14:51:12;11.27;;;5.15;;
46507;SDS011;32223;53.654;10.014;2023-10-13T14:53:41;9.70;;;5.03;;
46507;SDS011;32223;53.654;10.014;2023-10-13T14:56:12;15.10;;;5.13;;
46507;SDS011;32223;53.654;10.014;2023-10-13T14:58:38;14.32;;;4.35;;
46507;SDS011;32223;53.654;10.014;2023-10-13T15:01:14;7.50;;;3.83;;
46507;SDS011;32223;53.654;10.014;2023-10-13T15:03:43;8.57;;;4.43;;
46507;SDS011;32223;53.654;10.014;2023-10-13T15:06:17;13.13;;;4.53;;
46507;SDS011;32223;53.654;10.014;2023-10-13T15:08:45;12.90;;;5.20;;
46507;SDS011;32223;53.654;10.014;2023-10-13T15:11:12;16.23;;;6.22;;
46507;SDS011;32223;53.654;10.014;2023-10-13T15:13:41;14.48;;;4.32;;
46507;SDS011;32223;53.654;10.014;2023-10-13T15:16:16;11.45;;;4.38;;
46507;SDS011;32223;53.654;10.014;2023-10-13T15:18:44;10.95;;;4.60;;
46507;SDS011;32223;53.654;10.014;2023-10-13T15:21:11;15.68;;;5.13;;
46507;SDS011;32223;53.654;10.014;2023-10-13T15:23:38;11.45;;;5.13;;